Time;durP1;ratioP1;P1;durP2;ratioP2;P2;SDS_P1;SDS_P2;PMS_P1;PMS_P2;Temp;Humidity;BMP_temperature;BMP_pressure;BME280_temperature;BME280_humidity;BME280_pressure;Samples;Min_cycle;Max_cycle;Signal;HPM_P1;HPM_P2
2021/11/07 00:01:03;;;;;;;2.90;2.70;;;4.50;99.90;;;;;;5035628;28;20242;-79
2021/11/07 00:03:36;;;;;;;2.95;2.75;;;4.40;99.90;;;;;;5037321;28;20215;-78
2021/11/07 00:06:08;;;;;;;2.40;2.28;;;4.40;99.90;;;;;;5041253;28;20324;-78
2021/11/07 00:11:28;;;;;;;2.83;2.65;;;4.30;99.90;;;;;;5037224;28;20444;-77
2021/11/07 00:13:56;;;;;;;2.78;2.63;;;4.30;99.90;;;;;;5042008;28;20712;-77
2021/11/07 00:16:26;;;;;;;2.92;2.72;;;4.40;99.90;;;;;;5039107;28;20218;-78
2021/11/07 00:19:07;;;;;;;2.92;2.72;;;4.30;99.90;;;;;;5042137;28;20227;-78
2021/11/07 00:21:41;;;;;;;2.70;2.60;;;4.40;99.90;;;;;;5037326;28;20959;-78
2021/11/07 00:24:11;;;;;;;2.90;2.70;;;4.30;99.90;;;;;;5037658;28;20215;-79
2021/11/07 00:26:50;;;;;;;2.65;2.53;;;4.20;99.90;;;;;;5037230;28;20226;-78
2021/11/07 00:29:20;;;;;;;2.60;2.50;;;4.30;99.90;;;;;;5038777;28;20251;-79
2021/11/07 00:31:51;;;;;;;2.30;2.20;;;4.20;99.90;;;;;;5036125;28;20291;-79
2021/11/07 00:35:02;;;;;;;2.80;2.70;;;4.30;99.90;;;;;;5031994;28;20234;-78
2021/11/07 00:37:32;;;;;;;2.65;2.47;;;4.30;99.90;;;;;;5036360;28;20835;-79
2021/11/07 00:40:15;;;;;;;2.60;2.42;;;4.30;99.90;;;;;;5038441;28;20218;-79
2021/11/07 00:42:51;;;;;;;2.63;2.47;;;4.30;99.90;;;;;;5040406;28;20211;-79
2021/11/07 00:45:28;;;;;;;2.63;2.53;;;4.30;99.90;;;;;;5038280;28;20768;-79
2021/11/07 00:48:06;;;;;;;3.03;2.83;;;4.30;99.90;;;;;;5036656;28;20223;-79
2021/11/07 00:50:44;;;;;;;2.70;2.58;;;4.30;99.90;;;;;;5038800;28;20284;-79
2021/11/07 00:53:24;;;;;;;2.75;2.65;;;4.20;99.90;;;;;;5040704;28;20280;-79
2021/11/07 00:55:59;;;;;;;2.38;2.28;;;4.20;99.90;;;;;;5038866;28;20311;-79
2021/11/07 00:58:33;;;;;;;2.40;2.30;;;4.20;99.90;;;;;;5043485;28;20787;-79
2021/11/07 01:01:03;;;;;;;2.47;2.38;;;4.20;99.90;;;;;;5043231;28;20218;-79
2021/11/07 01:03:31;;;;;;;2.40;2.30;;;4.20;99.90;;;;;;5042530;28;20234;-78
2021/11/07 01:05:58;;;;;;;2.60;2.50;;;4.20;99.90;;;;;;5041737;28;20221;-79
2021/11/07 01:08:26;;;;;;;2.10;2.00;;;4.20;99.90;;;;;;5044840;28;20233;-79
2021/11/07 01:10:53;;;;;;;2.45;2.35;;;4.20;99.90;;;;;;5045607;28;20656;-79
2021/11/07 01:13:20;;;;;;;3.05;2.88;;;4.20;99.90;;;;;;5038889;28;20214;-78
2021/11/07 01:15:49;;;;;;;2.63;2.53;;;4.20;99.90;;;;;;5044301;28;20222;-78
2021/11/07 01:18:17;;;;;;;2.50;2.40;;;4.10;99.90;;;;;;5041542;28;20231;-78
2021/11/07 01:20:44;;;;;;;2.63;2.53;;;4.20;99.90;;;;;;5043411;28;20222;-79
2021/11/07 01:23:16;;;;;;;2.35;2.25;;;4.20;99.90;;;;;;5042818;28;20225;-79
2021/11/07 01:25:45;;;;;;;2.58;2.47;;;4.20;99.90;;;;;;5046473;28;20612;-79
2021/11/07 01:28:16;;;;;;;2.58;2.47;;;4.20;99.90;;;;;;5043207;28;20211;-79
2021/11/07 01:30:48;;;;;;;2.92;2.78;;;4.10;99.90;;;;;;5043518;28;20213;-79
2021/11/07 01:33:20;;;;;;;2.72;2.53;;;4.10;99.90;;;;;;5048589;28;20226;-78
2021/11/07 01:35:54;;;;;;;2.80;2.70;;;4.00;99.90;;;;;;5042388;28;20308;-79
2021/11/07 01:38:26;;;;;;;2.70;2.60;;;4.10;99.90;;;;;;5042572;28;20745;-79
2021/11/07 01:41:01;;;;;;;2.60;2.50;;;4.00;99.90;;;;;;5047492;28;20685;-79
2021/11/07 01:43:29;;;;;;;2.50;2.33;;;4.00;99.90;;;;;;5042651;28;20758;-79
2021/11/07 01:46:04;;;;;;;2.83;2.72;;;3.90;99.90;;;;;;5048862;28;20222;-79
2021/11/07 01:48:41;;;;;;;3.28;3.08;;;3.90;99.90;;;;;;5049703;28;20250;-78
2021/11/07 01:51:09;;;;;;;2.45;2.35;;;3.90;99.90;;;;;;5041595;28;20310;-78
2021/11/07 01:53:38;;;;;;;2.60;2.50;;;3.90;99.90;;;;;;5044412;28;21030;-78
2021/11/07 01:56:08;;;;;;;2.70;2.60;;;3.90;99.90;;;;;;5048194;28;20228;-78
2021/11/07 01:58:37;;;;;;;2.78;2.67;;;3.80;99.90;;;;;;5041977;28;20234;-76
2021/11/07 02:01:05;;;;;;;2.47;2.28;;;3.80;99.90;;;;;;5044463;28;20234;-79
2021/11/07 02:03:35;;;;;;;2.72;2.53;;;3.80;99.90;;;;;;5042746;28;20310;-78
2021/11/07 02:06:02;;;;;;;2.58;2.47;;;3.70;99.90;;;;;;5046031;28;20608;-80
2021/11/07 02:08:30;;;;;;;2.83;2.72;;;3.70;99.90;;;;;;5041337;28;20226;-77
2021/11/07 02:10:58;;;;;;;2.80;2.63;;;3.70;99.90;;;;;;5050141;28;20225;-75
2021/11/07 02:13:28;;;;;;;2.60;2.50;;;3.60;99.90;;;;;;5043659;28;20241;-79
2021/11/07 02:15:56;;;;;;;2.88;2.78;;;3.50;99.90;;;;;;5046584;28;20222;-78
2021/11/07 02:18:23;;;;;;;2.83;2.72;;;3.50;99.90;;;;;;5045247;28;20226;-79
2021/11/07 02:20:51;;;;;;;2.60;2.50;;;3.50;99.90;;;;;;5048001;28;20240;-79
2021/11/07 02:23:22;;;;;;;2.72;2.63;;;3.50;99.90;;;;;;5044643;28;20222;-77
2021/11/07 02:25:52;;;;;;;2.88;2.78;;;3.50;99.90;;;;;;5046423;28;20223;-77
2021/11/07 02:28:29;;;;;;;2.67;2.58;;;3.50;99.90;;;;;;5044613;28;20300;-79
2021/11/07 02:30:58;;;;;;;2.58;2.47;;;3.50;99.90;;;;;;5043559;28;20219;-79
2021/11/07 02:33:25;;;;;;;2.83;2.72;;;3.60;99.90;;;;;;5041880;28;20317;-79
2021/11/07 02:35:55;;;;;;;2.53;2.42;;;3.60;99.90;;;;;;5041497;28;20222;-78
2021/11/07 02:38:22;;;;;;;2.80;2.60;;;3.60;99.90;;;;;;5045740;28;20239;-77
2021/11/07 02:40:49;;;;;;;2.53;2.42;;;3.60;99.90;;;;;;5045530;28;20867;-78
2021/11/07 02:43:17;;;;;;;3.08;2.88;;;3.60;99.90;;;;;;5041935;28;20580;-79
2021/11/07 02:45:44;;;;;;;2.78;2.67;;;3.50;99.90;;;;;;5045688;28;20284;-78
2021/11/07 02:48:11;;;;;;;2.78;2.67;;;3.50;99.90;;;;;;5048971;28;20737;-79
2021/11/07 02:50:38;;;;;;;3.08;2.88;;;3.50;99.90;;;;;;5047419;28;20217;-78
2021/11/07 02:53:07;;;;;;;2.80;2.70;;;3.50;99.90;;;;;;5042936;28;20218;-78
2021/11/07 02:55:34;;;;;;;2.10;2.00;;;3.60;99.90;;;;;;5042867;28;20231;-79
2021/11/07 02:58:02;;;;;;;2.75;2.65;;;3.60;99.90;;;;;;5050961;28;20242;-78
2021/11/07 03:00:31;;;;;;;2.45;2.35;;;3.60;99.90;;;;;;5042557;28;20250;-78
2021/11/07 03:02:59;;;;;;;2.50;2.40;;;3.60;99.90;;;;;;5044380;28;20237;-79
2021/11/07 03:05:31;;;;;;;2.75;2.65;;;3.60;99.90;;;;;;5042489;28;20235;-77
2021/11/07 03:07:58;;;;;;;2.35;2.25;;;3.50;99.90;;;;;;5045208;28;20720;-78
2021/11/07 03:10:30;;;;;;;2.00;1.90;;;3.50;99.90;;;;;;5039858;28;20315;-80
2021/11/07 03:13:07;;;;;;;2.65;2.45;;;3.50;99.90;;;;;;5042664;28;20219;-78
2021/11/07 03:15:35;;;;;;;3.20;3.00;;;3.50;99.90;;;;;;5041236;28;20230;-79
2021/11/07 03:18:02;;;;;;;2.45;2.35;;;3.50;99.90;;;;;;5045012;28;20316;-76
2021/11/07 03:20:30;;;;;;;2.70;2.50;;;3.60;99.90;;;;;;5039867;28;20266;-77
2021/11/07 03:22:57;;;;;;;2.70;2.60;;;3.60;99.90;;;;;;5044861;28;20309;-76
2021/11/07 03:25:25;;;;;;;2.67;2.58;;;3.60;99.90;;;;;;5039433;28;20313;-78
2021/11/07 03:27:54;;;;;;;2.63;2.53;;;3.60;99.90;;;;;;5045619;28;20229;-77
2021/11/07 03:30:33;;;;;;;2.60;2.50;;;3.60;99.90;;;;;;5043529;28;20227;-79
2021/11/07 03:33:11;;;;;;;2.97;2.78;;;3.60;99.90;;;;;;5048442;28;20219;-78
2021/11/07 03:35:38;;;;;;;2.85;2.75;;;3.60;99.90;;;;;;5035066;28;20215;-77
2021/11/07 03:38:05;;;;;;;3.00;2.80;;;3.60;99.90;;;;;;5043682;28;20226;-80
2021/11/07 03:40:34;;;;;;;2.92;2.83;;;3.50;99.90;;;;;;5042062;28;20635;-79
2021/11/07 03:43:04;;;;;;;2.50;2.40;;;3.40;99.90;;;;;;5044136;28;20250;-79
2021/11/07 03:45:31;;;;;;;2.72;2.63;;;3.40;99.90;;;;;;5042602;28;20249;-78
2021/11/07 03:47:58;;;;;;;2.55;2.45;;;3.40;99.90;;;;;;5044135;28;20226;-79
2021/11/07 03:50:27;;;;;;;2.40;2.30;;;3.50;99.90;;;;;;5045694;28;20222;-79
2021/11/07 03:52:54;;;;;;;2.50;2.40;;;3.40;99.90;;;;;;5046511;28;20284;-77
2021/11/07 03:55:22;;;;;;;2.60;2.50;;;3.50;99.90;;;;;;5045401;28;20379;-77
2021/11/07 03:57:49;;;;;;;2.80;2.70;;;3.50;99.90;;;;;;5042912;28;20230;-79
2021/11/07 04:00:20;;;;;;;2.38;2.28;;;3.50;99.90;;;;;;5043028;28;20234;-77
2021/11/07 04:02:48;;;;;;;2.63;2.53;;;3.50;99.90;;;;;;5044034;28;20231;-78
2021/11/07 04:05:16;;;;;;;2.50;2.40;;;3.50;99.90;;;;;;5039690;28;20687;-78
2021/11/07 04:07:43;;;;;;;3.08;2.88;;;3.50;99.90;;;;;;5041239;28;20219;-78
2021/11/07 04:10:12;;;;;;;2.63;2.53;;;3.50;99.90;;;;;;5045298;28;20222;-79
2021/11/07 04:12:40;;;;;;;2.72;2.63;;;3.40;99.90;;;;;;5041514;28;20218;-79
2021/11/07 04:15:09;;;;;;;2.67;2.47;;;3.30;99.90;;;;;;5045924;28;20238;-79
2021/11/07 04:17:38;;;;;;;2.72;2.63;;;3.30;99.90;;;;;;5046551;28;20226;-79
2021/11/07 04:20:08;;;;;;;2.78;2.67;;;3.30;99.90;;;;;;5042050;28;20230;-78
2021/11/07 04:22:35;;;;;;;2.90;2.75;;;3.40;99.90;;;;;;5038754;28;20242;-78
2021/11/07 04:25:02;;;;;;;2.80;2.70;;;3.40;99.90;;;;;;5044026;28;20217;-79
2021/11/07 04:27:29;;;;;;;2.60;2.50;;;3.30;99.90;;;;;;5046543;28;20223;-78
2021/11/07 04:29:57;;;;;;;2.58;2.47;;;3.30;99.90;;;;;;5041163;28;20222;-78
2021/11/07 04:32:24;;;;;;;3.08;2.88;;;3.30;99.90;;;;;;5044062;28;20226;-78
2021/11/07 04:34:52;;;;;;;2.63;2.53;;;3.20;99.90;;;;;;5043682;28;20220;-77
2021/11/07 04:37:21;;;;;;;2.40;2.30;;;3.20;99.90;;;;;;5043088;28;20241;-78
2021/11/07 04:39:48;;;;;;;2.80;2.70;;;3.20;99.90;;;;;;5043805;28;20223;-77
2021/11/07 04:42:15;;;;;;;2.95;2.85;;;3.20;99.90;;;;;;5046212;28;20218;-78
2021/11/07 04:44:43;;;;;;;2.80;2.70;;;3.30;99.90;;;;;;5045618;28;20215;-78
2021/11/07 04:47:10;;;;;;;2.72;2.63;;;3.30;99.90;;;;;;5042653;28;20231;-78
2021/11/07 04:49:37;;;;;;;2.80;2.70;;;3.20;99.90;;;;;;5041610;28;20226;-77
2021/11/07 04:52:07;;;;;;;2.58;2.47;;;3.20;99.90;;;;;;5042552;28;20250;-79
2021/11/07 04:54:35;;;;;;;2.92;2.83;;;3.20;99.90;;;;;;5044525;28;20229;-77
2021/11/07 04:57:03;;;;;;;2.80;2.60;;;3.20;99.90;;;;;;5043092;28;20724;-79
2021/11/07 04:59:30;;;;;;;2.75;2.65;;;3.20;99.90;;;;;;5045323;28;20784;-79
2021/11/07 05:01:57;;;;;;;2.60;2.50;;;3.10;99.90;;;;;;5045550;28;20222;-77
2021/11/07 05:04:24;;;;;;;2.65;2.55;;;3.20;99.90;;;;;;5040201;28;20231;-79
2021/11/07 05:06:52;;;;;;;2.60;2.47;;;3.20;99.90;;;;;;5042648;28;20235;-78
2021/11/07 05:09:21;;;;;;;2.83;2.63;;;3.20;99.90;;;;;;5038528;28;20306;-78
2021/11/07 05:11:48;;;;;;;2.60;2.50;;;3.30;99.90;;;;;;5039359;28;20727;-79
2021/11/07 05:14:16;;;;;;;2.90;2.75;;;3.20;99.90;;;;;;5040044;28;20227;-79
2021/11/07 05:16:43;;;;;;;2.90;2.80;;;3.20;99.90;;;;;;5043884;28;20223;-78
2021/11/07 05:19:11;;;;;;;2.60;2.50;;;3.20;99.90;;;;;;5040687;28;20237;-78
2021/11/07 05:21:39;;;;;;;2.80;2.70;;;3.20;99.90;;;;;;5042665;28;20226;-78
2021/11/07 05:24:07;;;;;;;3.00;2.90;;;3.20;99.90;;;;;;5039419;28;20313;-78
2021/11/07 05:26:36;;;;;;;2.80;2.60;;;3.20;99.90;;;;;;5043891;28;20805;-78
2021/11/07 05:29:04;;;;;;;2.40;2.30;;;3.20;99.90;;;;;;5040235;28;20229;-78
2021/11/07 05:31:32;;;;;;;2.80;2.70;;;3.20;99.90;;;;;;5040558;28;20221;-79
2021/11/07 05:33:59;;;;;;;2.83;2.72;;;3.20;99.90;;;;;;5041562;28;20454;-76
2021/11/07 05:36:27;;;;;;;2.72;2.53;;;3.10;99.90;;;;;;5039923;28;20233;-78
2021/11/07 05:38:54;;;;;;;2.58;2.47;;;3.10;99.90;;;;;;5044291;28;20242;-77
2021/11/07 05:41:22;;;;;;;3.00;2.90;;;3.10;99.90;;;;;;5037451;28;20226;-79
2021/11/07 05:43:51;;;;;;;2.63;2.53;;;3.10;99.90;;;;;;5046420;28;20701;-77
2021/11/07 05:46:18;;;;;;;2.95;2.85;;;3.10;99.90;;;;;;5044050;28;20847;-79
2021/11/07 05:48:45;;;;;;;2.97;2.78;;;3.20;99.90;;;;;;5043690;28;20229;-79
2021/11/07 05:51:13;;;;;;;3.00;2.83;;;3.10;99.90;;;;;;5044100;28;20223;-78
2021/11/07 05:53:41;;;;;;;2.72;2.63;;;3.10;99.90;;;;;;5046164;28;20702;-78
2021/11/07 05:56:08;;;;;;;2.60;2.50;;;3.00;99.90;;;;;;5043573;28;20617;-78
2021/11/07 05:58:36;;;;;;;3.47;3.08;;;2.90;99.90;;;;;;5049547;28;20226;-78
2021/11/07 06:01:05;;;;;;;2.55;2.45;;;2.90;99.90;;;;;;5043817;28;20592;-79
2021/11/07 06:03:32;;;;;;;2.60;2.50;;;2.90;99.90;;;;;;5047590;28;20230;-77
2021/11/07 06:05:59;;;;;;;3.08;2.97;;;3.00;99.90;;;;;;5045565;28;20227;-77
2021/11/07 06:08:27;;;;;;;2.78;2.67;;;3.00;99.90;;;;;;5047930;28;20231;-78
2021/11/07 06:10:54;;;;;;;3.33;3.13;;;3.10;99.90;;;;;;5046360;28;20229;-77
2021/11/07 06:13:21;;;;;;;2.80;2.67;;;3.10;99.90;;;;;;5044383;28;20219;-78
2021/11/07 06:15:49;;;;;;;2.90;2.80;;;3.00;99.90;;;;;;5045937;28;20591;-77
2021/11/07 06:18:18;;;;;;;2.63;2.53;;;3.10;99.90;;;;;;5046773;28;20325;-76
2021/11/07 06:20:46;;;;;;;2.85;2.65;;;3.10;99.90;;;;;;5045531;28;20222;-78
2021/11/07 06:23:13;;;;;;;2.55;2.45;;;3.10;99.90;;;;;;5048883;28;20253;-79
2021/11/07 06:25:40;;;;;;;2.58;2.47;;;3.20;99.90;;;;;;5049551;28;20215;-79
2021/11/07 06:28:08;;;;;;;2.53;2.42;;;3.20;99.90;;;;;;5046673;28;20268;-78
2021/11/07 06:30:37;;;;;;;2.80;2.70;;;3.30;99.90;;;;;;5041141;28;20226;-79
2021/11/07 06:33:04;;;;;;;2.50;2.40;;;3.30;99.90;;;;;;5044956;28;20241;-79
2021/11/07 06:35:33;;;;;;;2.38;2.28;;;3.30;99.90;;;;;;5042798;28;20219;-79
2021/11/07 06:38:00;;;;;;;3.13;2.67;;;3.40;99.90;;;;;;5041002;28;20222;-79
2021/11/07 06:40:27;;;;;;;2.55;2.45;;;3.40;99.90;;;;;;5044838;28;20238;-77
2021/11/07 06:42:54;;;;;;;3.30;3.13;;;3.40;99.90;;;;;;5038850;28;20223;-74
2021/11/07 06:45:22;;;;;;;4.88;4.47;;;3.50;99.90;;;;;;5042319;28;20215;-78
2021/11/07 06:47:49;;;;;;;6.45;5.90;;;3.50;99.90;;;;;;5045993;28;20233;-77
2021/11/07 06:50:17;;;;;;;3.95;3.65;;;3.40;99.90;;;;;;5045319;28;20305;-78
2021/11/07 06:52:46;;;;;;;3.90;3.67;;;3.40;99.90;;;;;;5043001;28;20277;-78
2021/11/07 06:55:17;;;;;;;3.72;3.42;;;3.40;99.90;;;;;;5047281;28;20278;-76
2021/11/07 06:57:44;;;;;;;3.70;3.50;;;3.40;99.90;;;;;;5046022;28;20218;-79
2021/11/07 07:00:15;;;;;;;5.40;5.00;;;3.50;99.90;;;;;;5041694;28;20242;-75
2021/11/07 07:02:43;;;;;;;3.90;3.67;;;3.50;99.90;;;;;;5038449;28;20246;-78
2021/11/07 07:05:11;;;;;;;4.45;4.15;;;3.60;99.90;;;;;;5043991;28;20217;-78
2021/11/07 07:07:43;;;;;;;4.85;4.55;;;3.70;99.90;;;;;;5045378;28;20303;-79
2021/11/07 07:10:17;;;;;;;5.35;4.78;;;3.70;99.90;;;;;;5042327;28;20218;-78
2021/11/07 07:12:49;;;;;;;4.72;4.43;;;3.80;99.90;;;;;;5040258;28;20230;-78
2021/11/07 07:15:19;;;;;;;3.63;3.42;;;3.90;99.90;;;;;;5045337;28;20223;-78
2021/11/07 07:17:53;;;;;;;4.28;3.97;;;4.40;99.90;;;;;;5048675;28;20276;-74
2021/11/07 07:20:39;;;;;;;3.40;3.20;;;5.20;99.90;;;;;;5046846;28;20306;-77
2021/11/07 07:23:39;;;;;;;3.33;3.05;;;6.20;99.90;;;;;;5045847;28;20229;-79
2021/11/07 07:29:01;;;;;;;3.13;3.00;;;7.60;99.90;;;;;;5045818;28;20229;-79
2021/11/07 07:34:17;;;;;;;3.42;3.22;;;8.30;99.90;;;;;;5055714;28;20226;-80
2021/11/07 07:36:44;;;;;;;3.38;2.92;;;8.60;99.90;;;;;;5050391;28;20235;-80
2021/11/07 07:39:12;;;;;;;3.38;3.10;;;8.80;99.90;;;;;;5056790;28;20253;-80
2021/11/07 07:41:40;;;;;;;3.42;3.22;;;8.60;99.90;;;;;;5060600;28;20227;-82
2021/11/07 07:44:08;;;;;;;2.63;2.47;;;8.70;99.90;;;;;;5053683;28;20681;-84
2021/11/07 07:46:36;;;;;;;2.90;2.70;;;8.80;99.90;;;;;;5050454;28;20234;-86
2021/11/07 07:49:04;;;;;;;2.65;2.45;;;8.70;99.90;;;;;;5054252;28;20219;-88
2021/11/07 07:51:32;;;;;;;3.00;2.80;;;8.70;99.90;;;;;;5034975;28;20218;-86
2021/11/07 07:54:01;;;;;;;3.63;3.42;;;9.00;99.90;;;;;;5050400;28;20310;-86
2021/11/07 07:56:28;;;;;;;2.90;2.70;;;9.20;99.90;;;;;;5029338;28;20229;-90
2021/11/07 07:58:57;;;;;;;3.00;2.80;;;9.40;99.90;;;;;;5051058;28;20218;-89
2021/11/07 08:01:25;;;;;;;2.95;2.75;;;9.60;99.90;;;;;;5035020;28;20230;-86
2021/11/07 08:03:52;;;;;;;2.78;2.67;;;10.10;99.90;;;;;;5038576;28;20222;-87
2021/11/07 08:06:20;;;;;;;2.60;2.50;;;10.00;99.90;;;;;;5041127;28;20628;-86
2021/11/07 08:08:47;;;;;;;2.63;2.42;;;10.00;99.90;;;;;;5042981;28;20237;-85
2021/11/07 08:11:15;;;;;;;3.50;3.20;;;10.00;99.90;;;;;;5041124;28;20222;-88
2021/11/07 08:13:43;;;;;;;2.80;2.58;;;10.30;99.90;;;;;;5043488;28;20596;-89
2021/11/07 08:16:11;;;;;;;3.05;2.85;;;10.60;99.90;;;;;;5043243;28;20230;-89
2021/11/07 08:18:38;;;;;;;2.40;2.30;;;10.80;99.90;;;;;;5038873;28;20235;-91
2021/11/07 08:21:05;;;;;;;2.65;2.45;;;10.70;99.90;;;;;;5044060;28;20253;-89
2021/11/07 08:23:33;;;;;;;2.97;2.78;;;10.60;99.90;;;;;;5042985;28;20215;-90
2021/11/07 08:26:01;;;;;;;2.67;2.58;;;10.70;99.90;;;;;;5043698;28;20226;-90
2021/11/07 08:28:30;;;;;;;3.03;2.83;;;11.00;99.90;;;;;;5046168;28;20760;-90
2021/11/07 08:31:05;;;;;;;2.63;2.42;;;11.00;99.90;;;;;;5045039;28;20305;-89
2021/11/07 08:33:34;;;;;;;2.65;2.50;;;10.90;99.90;;;;;;5044393;28;20758;-89
2021/11/07 08:36:05;;;;;;;2.40;2.30;;;11.20;99.90;;;;;;5045500;28;20234;-89
2021/11/07 08:38:37;;;;;;;2.45;2.35;;;11.40;99.90;;;;;;5049583;28;20234;-90
2021/11/07 08:41:05;;;;;;;2.75;2.65;;;11.80;99.90;;;;;;5047799;28;25103;-88
2021/11/07 09:00:23;;;;;;;3.00;2.80;;;12.90;99.90;;;;;;5047992;28;20237;-80
2021/11/07 09:02:57;;;;;;;2.60;2.40;;;13.10;99.90;;;;;;5047959;28;20236;-88
2021/11/07 09:05:30;;;;;;;2.00;1.90;;;13.30;99.90;;;;;;5050184;28;20245;-88
2021/11/07 09:08:13;;;;;;;2.38;2.28;;;13.70;99.90;;;;;;5048151;28;20234;-86
2021/11/07 09:10:41;;;;;;;2.10;2.00;;;14.50;99.90;;;;;;5038413;28;20221;-84
2021/11/07 09:13:10;;;;;;;2.03;1.90;;;14.90;99.90;;;;;;5037269;28;20255;-88
2021/11/07 09:15:39;;;;;;;2.45;2.33;;;15.20;99.90;;;;;;5044019;28;20241;-87
2021/11/07 09:18:07;;;;;;;2.67;2.47;;;15.00;99.90;;;;;;5048124;28;20218;-88
2021/11/07 09:20:41;;;;;;;2.58;2.38;;;14.70;99.90;;;;;;5052334;28;20310;-84
2021/11/07 09:23:14;;;;;;;2.28;2.10;;;14.50;99.90;;;;;;5051564;28;20707;-85
2021/11/07 09:25:44;;;;;;;1.98;1.88;;;14.20;99.90;;;;;;5055435;28;20234;-88
2021/11/07 09:28:15;;;;;;;2.10;1.92;;;14.20;99.90;;;;;;5052366;28;20258;-85
2021/11/07 09:30:50;;;;;;;2.28;2.17;;;14.20;99.90;;;;;;5058116;28;20244;-89
2021/11/07 09:33:24;;;;;;;2.50;2.30;;;14.30;99.90;;;;;;5052981;28;20219;-87
2021/11/07 09:36:10;;;;;;;1.98;1.88;;;14.20;99.90;;;;;;5053736;28;20268;-88
2021/11/07 09:38:46;;;;;;;2.13;2.00;;;13.90;99.90;;;;;;5055995;28;20219;-89
2021/11/07 09:41:19;;;;;;;2.40;2.20;;;13.70;99.90;;;;;;5054403;28;20226;-84
2021/11/07 09:43:48;;;;;;;2.13;2.03;;;13.50;99.90;;;;;;5053909;28;20589;-89
2021/11/07 09:46:28;;;;;;;2.10;1.90;;;13.70;99.90;;;;;;5053278;28;20785;-87
2021/11/07 09:48:59;;;;;;;2.30;2.20;;;13.70;99.90;;;;;;5052779;28;20218;-90
2021/11/07 09:51:33;;;;;;;2.05;1.90;;;13.80;99.90;;;;;;5060144;28;20313;-89
2021/11/07 09:54:02;;;;;;;2.10;1.90;;;14.00;99.90;;;;;;5044812;28;20214;-89
2021/11/07 09:56:30;;;;;;;1.80;1.70;;;14.20;99.90;;;;;;5047245;28;20233;-88
2021/11/07 09:58:58;;;;;;;2.15;1.98;;;14.40;99.90;;;;;;5044239;28;20223;-87
2021/11/07 10:01:27;;;;;;;2.17;2.08;;;14.40;99.90;;;;;;5042431;28;20231;-87
2021/11/07 10:03:54;;;;;;;2.30;2.10;;;14.10;99.90;;;;;;5050351;28;20276;-90
2021/11/07 10:06:30;;;;;;;2.47;2.28;;;13.80;99.90;;;;;;5044047;28;20714;-89
2021/11/07 10:08:57;;;;;;;2.22;2.10;;;13.60;99.90;;;;;;5050813;28;20232;-87
2021/11/07 10:11:30;;;;;;;2.22;2.00;;;13.50;99.90;;;;;;5052270;28;20219;-85
2021/11/07 10:14:06;;;;;;;2.35;2.15;;;13.20;99.90;;;;;;5051325;28;20228;-87
2021/11/07 10:16:42;;;;;;;1.80;1.70;;;13.20;99.90;;;;;;5055789;28;20233;-86
2021/11/07 10:19:35;;;;;;;1.92;1.83;;;13.20;99.90;;;;;;5049065;28;20595;-88
2021/11/07 10:22:04;;;;;;;1.95;1.85;;;13.50;99.90;;;;;;5051971;28;20775;-90
2021/11/07 10:24:35;;;;;;;2.10;2.00;;;13.60;99.90;;;;;;5052165;28;20214;-87
2021/11/07 10:27:06;;;;;;;2.95;1.73;;;13.80;99.90;;;;;;5052993;28;20218;-87
2021/11/07 10:29:40;;;;;;;2.45;2.00;;;14.20;99.90;;;;;;5054036;28;20229;-87
2021/11/07 10:32:12;;;;;;;2.58;1.83;;;14.30;99.90;;;;;;5055214;28;20226;-87
2021/11/07 10:35:11;;;;;;;2.13;2.00;;;14.60;99.90;;;;;;5050281;28;20597;-86
2021/11/07 10:37:58;;;;;;;2.08;1.98;;;14.80;99.90;;;;;;5048651;28;20298;-88
2021/11/07 10:40:44;;;;;;;2.85;2.65;;;15.10;99.90;;;;;;5048660;28;20278;-88
2021/11/07 10:46:31;;;;;;;2.53;2.33;;;15.10;99.90;;;;;;5047449;28;20308;-88
2021/11/07 10:52:07;;;;;;;2.17;2.08;;;15.00;99.90;;;;;;5048896;28;20241;-87
2021/11/07 10:54:42;;;;;;;2.35;2.15;;;14.80;99.90;;;;;;5054765;28;20241;-89
2021/11/07 10:57:19;;;;;;;2.47;2.15;;;14.60;99.90;;;;;;5038601;28;20210;-88
2021/11/07 11:00:08;;;;;;;2.75;2.30;;;14.70;99.90;;;;;;5049959;28;20276;-89
2021/11/07 11:02:38;;;;;;;2.58;1.75;;;14.70;99.90;;;;;;5049692;28;20226;-88
2021/11/07 11:05:08;;;;;;;2.13;1.75;;;14.60;99.90;;;;;;5048883;28;20219;-89
2021/11/07 11:07:53;;;;;;;2.05;1.95;;;14.50;99.90;;;;;;5042720;28;20231;-88
2021/11/07 11:10:25;;;;;;;2.70;2.50;;;14.70;99.90;;;;;;5041456;28;20222;-87
2021/11/07 11:13:08;;;;;;;2.13;1.95;;;14.90;99.90;;;;;;5048014;28;20277;-89
2021/11/07 11:15:42;;;;;;;2.20;2.10;;;14.90;99.90;;;;;;5054946;28;20231;-87
2021/11/07 11:18:25;;;;;;;2.40;2.20;;;14.70;99.90;;;;;;5058922;28;20287;-89
2021/11/07 11:21:20;;;;;;;2.08;1.98;;;14.40;99.90;;;;;;5047576;28;20611;-89
2021/11/07 11:24:01;;;;;;;2.20;2.00;;;14.30;99.90;;;;;;5041435;28;20219;-89
2021/11/07 11:26:44;;;;;;;2.25;2.05;;;14.20;99.90;;;;;;5050371;28;20227;-89
2021/11/07 11:29:27;;;;;;;11.65;2.50;;;14.00;99.90;;;;;;5014917;28;20222;-90
2021/11/07 11:32:00;;;;;;;8.38;2.90;;;14.20;99.90;;;;;;5055477;28;20634;-88
2021/11/07 11:34:30;;;;;;;4.90;2.28;;;14.40;99.90;;;;;;5037149;28;20312;-89
2021/11/07 11:37:03;;;;;;;3.17;2.03;;;14.60;99.90;;;;;;5031447;28;20222;-89
2021/11/07 11:39:35;;;;;;;2.00;1.80;;;14.70;99.90;;;;;;5049121;28;20228;-89
2021/11/07 11:42:07;;;;;;;2.03;1.90;;;14.60;99.90;;;;;;5012150;28;20235;-89
2021/11/07 11:44:36;;;;;;;2.00;1.80;;;14.60;99.90;;;;;;4999929;28;20226;-90
2021/11/07 11:52:54;;;;;;;2.03;1.90;;;15.10;99.90;;;;;;4917806;28;20243;-90
2021/11/07 11:58:28;;;;;;;2.17;1.80;;;15.30;99.90;;;;;;4931477;23;20215;-77
2021/11/07 12:01:04;;;;;;;1.70;1.60;;;15.40;99.90;;;;;;5029736;28;20214;-77
2021/11/07 12:03:52;;;;;;;2.00;1.80;;;15.40;99.90;;;;;;5032106;28;20226;-75
2021/11/07 12:06:24;;;;;;;1.70;1.60;;;15.50;99.90;;;;;;5030753;28;20214;-77
2021/11/07 12:09:39;;;;;;;1.75;1.65;;;15.50;99.90;;;;;;5028402;28;20227;-77
2021/11/07 12:12:10;;;;;;;4.78;1.70;;;15.30;99.90;;;;;;5033733;28;20463;-77
2021/11/07 12:15:07;;;;;;;1.58;1.38;;;15.10;99.90;;;;;;5034239;28;20219;-77
2021/11/07 12:17:37;;;;;;;2.17;1.50;;;15.40;99.90;;;;;;5036192;28;23175;-78
2021/11/07 12:20:24;;;;;;;1.90;1.80;;;15.50;99.90;;;;;;5036696;28;20219;-77
2021/11/07 12:23:12;;;;;;;1.80;1.70;;;15.80;99.90;;;;;;5035564;28;20693;-78
2021/11/07 12:25:39;;;;;;;1.60;1.50;;;15.90;99.90;;;;;;5042188;28;20611;-78
2021/11/07 12:28:07;;;;;;;1.80;1.70;;;15.70;99.90;;;;;;5037553;28;20716;-78
2021/11/07 12:30:36;;;;;;;1.73;1.63;;;15.70;99.90;;;;;;5035765;28;20207;-76
2021/11/07 12:33:08;;;;;;;1.92;1.73;;;15.50;99.90;;;;;;5040764;28;20237;-78
2021/11/07 12:35:38;;;;;;;1.70;1.60;;;15.50;99.90;;;;;;5047439;28;20782;-77
2021/11/07 12:41:06;;;;;;;1.70;1.60;;;15.50;99.90;;;;;;5034353;28;20720;-76
2021/11/07 12:43:38;;;;;;;2.22;2.03;;;15.40;99.90;;;;;;5013768;28;20309;-76
2021/11/07 12:46:17;;;;;;;3.25;1.58;;;15.30;99.90;;;;;;5037195;28;20296;-77
2021/11/07 12:48:46;;;;;;;1.83;1.73;;;15.20;99.90;;;;;;5036794;28;20233;-75
2021/11/07 12:51:15;;;;;;;1.80;1.70;;;15.40;99.90;;;;;;5037523;28;20214;-74
2021/11/07 12:54:17;;;;;;;1.58;1.48;;;15.60;99.90;;;;;;5038189;28;20226;-76
2021/11/07 12:56:51;;;;;;;1.38;1.27;;;15.60;99.90;;;;;;5005664;28;20218;-76
2021/11/07 12:59:23;;;;;;;1.92;1.63;;;15.30;99.90;;;;;;5035698;28;20222;-75
2021/11/07 13:01:59;;;;;;;1.98;1.73;;;14.70;99.90;;;;;;5036735;28;20230;-75
2021/11/07 13:04:27;;;;;;;2.22;1.90;;;14.30;99.90;;;;;;5037284;28;20223;-75
2021/11/07 13:06:57;;;;;;;2.25;2.05;;;13.90;99.90;;;;;;5034471;28;20276;-76
2021/11/07 13:09:33;;;;;;;1.70;1.60;;;13.70;99.90;;;;;;5034189;28;20231;-75
2021/11/07 13:12:09;;;;;;;1.90;1.75;;;13.70;99.90;;;;;;5031739;28;20939;-77
2021/11/07 13:18:14;;;;;;;2.20;2.00;;;13.70;99.90;;;;;;4999798;28;20272;-77
2021/11/07 13:20:53;;;;;;;2.00;1.83;;;14.00;99.90;;;;;;5033016;28;20207;-76
2021/11/07 13:23:41;;;;;;;1.90;1.80;;;14.20;99.90;;;;;;5033968;28;20232;-75
2021/11/07 13:26:16;;;;;;;1.90;1.80;;;14.30;99.90;;;;;;5038254;28;20223;-75
2021/11/07 13:28:44;;;;;;;1.90;1.80;;;14.50;99.90;;;;;;5033241;28;20215;-76
2021/11/07 13:31:16;;;;;;;1.75;1.52;;;14.70;99.90;;;;;;5037266;28;20211;-75
2021/11/07 13:33:45;;;;;;;1.60;1.50;;;14.80;99.90;;;;;;5033715;28;20313;-76
2021/11/07 13:36:15;;;;;;;1.63;1.52;;;14.90;99.90;;;;;;5038567;28;20229;-76
2021/11/07 13:38:47;;;;;;;1.75;1.65;;;14.80;99.90;;;;;;5036802;28;21861;-76
2021/11/07 13:41:17;;;;;;;1.98;1.88;;;14.90;99.90;;;;;;5031549;28;20285;-75
2021/11/07 13:43:47;;;;;;;1.67;1.58;;;15.00;99.90;;;;;;5036953;28;20249;-76
2021/11/07 13:46:16;;;;;;;2.08;1.75;;;14.80;99.90;;;;;;5040111;28;20217;-77
2021/11/07 13:48:44;;;;;;;2.03;1.92;;;14.90;99.90;;;;;;5039331;28;20244;-76
2021/11/07 13:51:12;;;;;;;1.60;1.50;;;15.10;99.90;;;;;;5038591;28;20229;-76
2021/11/07 13:53:42;;;;;;;1.70;1.60;;;15.20;99.90;;;;;;5039392;28;20295;-76
2021/11/07 13:56:11;;;;;;;1.80;1.70;;;15.10;99.90;;;;;;5037781;28;20219;-75
2021/11/07 13:58:41;;;;;;;1.80;1.70;;;15.20;99.90;;;;;;5036676;28;20654;-76
2021/11/07 14:01:09;;;;;;;1.60;1.50;;;15.20;99.90;;;;;;5033280;28;20234;-75